createdAt,value
2016-08-16T00:00:03.177Z,21.94
2016-08-16T00:01:02.445Z,21.94
2016-08-16T00:02:03.139Z,21.94
2016-08-16T00:03:03.126Z,21.98
2016-08-16T00:04:03.115Z,21.94
2016-08-16T00:05:03.097Z,22.04
2016-08-16T00:06:03.080Z,21.93
2016-08-16T00:07:03.064Z,21.94
2016-08-16T00:08:03.045Z,21.96
2016-08-16T00:09:03.025Z,21.96
2016-08-16T00:10:03.013Z,21.91
2016-08-16T00:11:03.004Z,22.04
2016-08-16T00:12:02.977Z,21.91
2016-08-16T00:13:02.959Z,21.91
2016-08-16T00:14:02.960Z,21.93
2016-08-16T00:15:02.926Z,21.93
2016-08-16T00:16:02.914Z,21.98
2016-08-16T00:17:02.901Z,21.96
2016-08-16T00:18:02.877Z,21.91
2016-08-16T00:19:02.866Z,21.91
2016-08-16T00:20:02.847Z,21.94
2016-08-16T00:21:02.121Z,21.94
2016-08-16T00:22:02.819Z,21.99
2016-08-16T00:23:02.803Z,21.93
2016-08-16T00:24:02.788Z,21.98
2016-08-16T00:25:02.059Z,21.91
2016-08-16T00:26:02.760Z,22.01
2016-08-16T00:27:02.738Z,21.93
2016-08-16T00:28:02.716Z,21.98
2016-08-16T00:29:02.712Z,22.04
2016-08-16T00:30:02.689Z,22.02
2016-08-16T00:31:02.677Z,21.99
2016-08-16T00:32:02.656Z,21.93
2016-08-16T00:33:02.642Z,21.94
2016-08-16T00:34:02.617Z,21.94
2016-08-16T00:35:02.609Z,21.98
2016-08-16T00:36:02.597Z,22.04
2016-08-16T00:37:02.576Z,21.98
2016-08-16T00:38:02.565Z,21.91
2016-08-16T00:39:02.541Z,21.9
2016-08-16T00:40:01.816Z,22.01
2016-08-16T00:41:02.508Z,21.94
2016-08-16T00:42:02.502Z,21.91
2016-08-16T00:43:02.476Z,21.91
2016-08-16T00:44:02.462Z,21.99
2016-08-16T00:45:02.448Z,22.04
2016-08-16T00:46:02.425Z,22.04
2016-08-16T00:47:02.413Z,22.02
2016-08-16T00:48:02.396Z,22.01
2016-08-16T00:49:02.383Z,21.98
2016-08-16T00:50:02.362Z,22.04
2016-08-16T00:51:02.350Z,22.02
2016-08-16T00:52:02.330Z,21.99
2016-08-16T00:53:02.327Z,22.06
2016-08-16T00:54:02.303Z,22.11
2016-08-16T00:55:02.281Z,21.94
2016-08-16T00:56:02.266Z,22.04
2016-08-16T00:57:02.249Z,21.98
2016-08-16T00:58:02.237Z,21.93
2016-08-16T00:59:02.223Z,22.01
2016-08-16T01:00:01.491Z,22.02
2016-08-16T01:01:02.186Z,22.05
2016-08-16T01:02:02.179Z,21.99
2016-08-16T01:03:02.160Z,22.04
2016-08-16T01:04:02.139Z,21.93
2016-08-16T01:05:02.116Z,21.98
2016-08-16T01:06:01.398Z,22.01
2016-08-16T01:07:02.099Z,22.04
2016-08-16T01:08:02.074Z,21.99
2016-08-16T01:09:02.063Z,22.05
2016-08-16T01:10:02.048Z,21.99
2016-08-16T01:11:02.020Z,21.98
2016-08-16T01:12:02.005Z,21.94
2016-08-16T01:13:01.994Z,21.96
2016-08-16T01:14:01.973Z,22.05
2016-08-16T01:15:01.253Z,22.04
2016-08-16T01:16:01.939Z,22.04
2016-08-16T01:17:01.926Z,22.02
2016-08-16T01:18:01.901Z,22.05
2016-08-16T01:19:01.899Z,22.02
2016-08-16T01:20:01.884Z,22.04
2016-08-16T01:21:01.158Z,22.04
2016-08-16T01:22:01.135Z,21.93
2016-08-16T01:23:01.827Z,22.02
2016-08-16T01:24:01.107Z,22.06
2016-08-16T01:25:01.801Z,22.06
2016-08-16T01:26:01.793Z,22.01
2016-08-16T01:27:01.763Z,21.94
2016-08-16T01:28:01.754Z,21.99
2016-08-16T01:29:01.740Z,21.93
2016-08-16T01:30:01.716Z,21.94
2016-08-16T01:31:01.702Z,21.93
2016-08-16T01:32:01.693Z,21.99
2016-08-16T01:33:01.675Z,21.99
2016-08-16T01:34:00.945Z,21.94
2016-08-16T01:35:01.640Z,21.99
2016-08-16T01:36:01.620Z,21.93
2016-08-16T01:37:00.902Z,21.93
2016-08-16T01:38:01.588Z,21.9
2016-08-16T01:39:01.580Z,22.02
2016-08-16T01:40:01.556Z,21.96
2016-08-16T01:41:01.547Z,21.91
2016-08-16T01:42:01.526Z,21.94
2016-08-16T01:43:01.510Z,21.93
2016-08-16T01:44:01.491Z,21.9
2016-08-16T01:45:01.484Z,21.93
2016-08-16T01:46:01.471Z,21.91
2016-08-16T01:47:01.448Z,21.98
2016-08-16T01:48:01.430Z,21.91
2016-08-16T01:49:01.409Z,21.98
2016-08-16T01:50:00.685Z,21.98
2016-08-16T01:51:00.672Z,21.94
2016-08-16T01:52:01.367Z,21.93
2016-08-16T01:53:01.348Z,21.96
2016-08-16T01:54:01.345Z,21.94
2016-08-16T01:55:01.316Z,21.91
2016-08-16T01:56:01.300Z,21.96
2016-08-16T01:57:01.289Z,22.01
2016-08-16T01:58:01.273Z,21.9
2016-08-16T01:59:01.249Z,21.94
2016-08-16T02:00:01.237Z,21.98
2016-08-16T02:01:01.226Z,21.96
2016-08-16T02:02:01.212Z,22.01
2016-08-16T02:03:00.481Z,21.98
2016-08-16T02:04:01.176Z,21.91
2016-08-16T02:05:01.161Z,21.91
2016-08-16T02:06:01.138Z,21.93
2016-08-16T02:07:01.128Z,21.89
2016-08-16T02:08:01.107Z,22.01
2016-08-16T02:09:01.086Z,21.89
2016-08-16T02:10:01.069Z,21.89
2016-08-16T02:11:01.062Z,22.02
2016-08-16T02:12:01.043Z,21.99
2016-08-16T02:13:01.021Z,21.91
2016-08-16T02:14:01.010Z,22.02
2016-08-16T02:15:00.997Z,21.89
2016-08-16T02:16:00.983Z,21.98
2016-08-16T02:17:00.962Z,21.93
2016-08-16T02:18:00.943Z,21.91
2016-08-16T02:19:00.932Z,21.94
2016-08-16T02:20:00.913Z,21.94
2016-08-16T02:21:00.899Z,21.98
2016-08-16T02:22:00.881Z,21.94
2016-08-16T02:23:00.871Z,21.98
2016-08-16T02:24:00.848Z,21.91
2016-08-16T02:25:00.838Z,21.98
2016-08-16T02:26:00.819Z,21.98
2016-08-16T02:27:00.798Z,21.98
2016-08-16T02:28:00.780Z,21.91
2016-08-16T02:29:00.767Z,21.96
2016-08-16T02:30:00.755Z,22.02
2016-08-16T02:31:00.736Z,21.99
2016-08-16T02:32:00.716Z,21.86
2016-08-16T02:33:00.705Z,21.86
2016-08-16T02:34:00.694Z,21.82
2016-08-16T02:35:00.671Z,21.83
2016-08-16T02:36:00.660Z,21.94
2016-08-16T02:37:00.643Z,21.89
2016-08-16T02:37:59.913Z,21.91
2016-08-16T02:39:00.610Z,21.96
2016-08-16T02:40:00.593Z,21.9
2016-08-16T02:41:00.578Z,21.85
2016-08-16T02:42:00.558Z,21.85
2016-08-16T02:43:00.545Z,21.83
2016-08-16T02:44:00.523Z,21.86
2016-08-16T02:45:00.508Z,21.91
2016-08-16T02:46:00.495Z,21.85
2016-08-16T02:47:00.486Z,22.01
2016-08-16T02:48:00.455Z,21.89
2016-08-16T02:49:00.443Z,21.93
2016-08-16T02:50:00.429Z,21.86
2016-08-16T02:51:00.415Z,21.9
2016-08-16T02:52:00.394Z,21.81
2016-08-16T02:53:00.383Z,21.83
2016-08-16T02:54:00.362Z,21.96
2016-08-16T02:55:00.359Z,21.89
2016-08-16T02:56:00.339Z,21.89
2016-08-16T02:57:00.314Z,21.9
2016-08-16T02:58:00.303Z,21.94
2016-08-16T02:59:00.299Z,21.91
2016-08-16T03:00:00.267Z,21.89
2016-08-16T03:01:00.255Z,21.98
2016-08-16T03:02:00.235Z,21.83
2016-08-16T03:03:00.220Z,21.86
2016-08-16T03:04:00.199Z,21.91
2016-08-16T03:05:00.180Z,21.86
2016-08-16T03:06:00.199Z,21.79
2016-08-16T03:06:59.450Z,21.85
2016-08-16T03:08:00.140Z,21.83
2016-08-16T03:09:00.125Z,21.89
2016-08-16T03:10:00.109Z,21.85
2016-08-16T03:11:00.083Z,21.83
2016-08-16T03:12:00.078Z,21.85
2016-08-16T03:13:00.057Z,21.85
2016-08-16T03:14:00.041Z,21.82
2016-08-16T03:15:00.016Z,21.9
2016-08-16T03:16:00.013Z,21.85
2016-08-16T03:16:59.989Z,21.89
2016-08-16T03:17:59.982Z,21.83
2016-08-16T03:18:59.968Z,21.79
2016-08-16T03:19:59.942Z,21.89
2016-08-16T03:20:59.219Z,21.85
2016-08-16T03:21:59.903Z,21.83
2016-08-16T03:22:59.894Z,21.86
2016-08-16T03:23:59.879Z,21.82
2016-08-16T03:24:59.867Z,21.91
2016-08-16T03:25:59.846Z,21.86
2016-08-16T03:26:59.832Z,21.91
2016-08-16T03:27:59.806Z,21.85
2016-08-16T03:28:59.795Z,21.94
2016-08-16T03:29:59.075Z,21.86
2016-08-16T03:30:59.762Z,21.91
2016-08-16T03:31:59.963Z,21.82
2016-08-16T03:32:59.726Z,21.82
2016-08-16T03:33:59.717Z,21.85
2016-08-16T03:34:59.708Z,21.91
2016-08-16T03:35:59.690Z,21.86
2016-08-16T03:36:58.963Z,21.89
2016-08-16T03:37:59.657Z,21.83
2016-08-16T03:38:59.654Z,21.93
2016-08-16T03:39:59.619Z,21.83
2016-08-16T03:40:59.603Z,21.82
2016-08-16T03:41:59.589Z,21.96
2016-08-16T03:42:58.868Z,21.85
2016-08-16T03:43:59.548Z,21.83
2016-08-16T03:44:59.542Z,21.79
2016-08-16T03:45:59.516Z,21.9
2016-08-16T03:46:59.503Z,21.82
2016-08-16T03:47:59.490Z,21.89
2016-08-16T03:48:59.483Z,21.94
2016-08-16T03:49:59.462Z,21.85
2016-08-16T03:50:59.444Z,21.85
2016-08-16T03:51:59.421Z,21.83
2016-08-16T03:52:59.405Z,21.89
2016-08-16T03:53:59.396Z,21.91
2016-08-16T03:54:59.384Z,21.81
2016-08-16T03:55:59.360Z,21.85
2016-08-16T03:56:59.342Z,21.83
2016-08-16T03:57:59.335Z,21.83
2016-08-16T03:58:59.326Z,21.86
2016-08-16T03:59:59.293Z,21.85
2016-08-16T04:00:58.575Z,21.81
2016-08-16T04:01:59.266Z,21.86
2016-08-16T04:02:59.239Z,21.81
2016-08-16T04:03:58.520Z,21.82
2016-08-16T04:04:59.210Z,21.83
2016-08-16T04:05:59.194Z,21.77
2016-08-16T04:06:59.188Z,21.85
2016-08-16T04:07:59.181Z,21.83
2016-08-16T04:08:59.164Z,21.77
2016-08-16T04:09:59.133Z,21.77
2016-08-16T04:10:59.123Z,21.74
2016-08-16T04:11:59.106Z,21.83
2016-08-16T04:12:59.085Z,21.77
2016-08-16T04:13:59.064Z,21.81
2016-08-16T04:14:59.048Z,21.74
2016-08-16T04:15:59.036Z,21.79
2016-08-16T04:16:59.018Z,21.74
2016-08-16T04:17:59.011Z,21.74
2016-08-16T04:18:58.984Z,21.77
2016-08-16T04:19:58.974Z,21.81
2016-08-16T04:20:58.962Z,21.81
2016-08-16T04:21:58.949Z,21.77
2016-08-16T04:22:58.923Z,21.73
2016-08-16T04:23:58.907Z,21.75
2016-08-16T04:24:58.891Z,21.81
2016-08-16T04:25:58.876Z,21.71
2016-08-16T04:26:58.861Z,21.77
2016-08-16T04:27:58.850Z,21.79
2016-08-16T04:28:58.820Z,21.73
2016-08-16T04:29:58.816Z,21.73
2016-08-16T04:30:58.801Z,21.77
2016-08-16T04:31:58.774Z,21.79
2016-08-16T04:32:58.757Z,21.74
2016-08-16T04:33:58.740Z,21.74
2016-08-16T04:34:58.724Z,21.81
2016-08-16T04:35:58.726Z,21.75
2016-08-16T04:36:58.702Z,21.77
2016-08-16T04:37:58.680Z,21.71
2016-08-16T04:38:57.950Z,21.73
2016-08-16T04:39:58.646Z,21.71
2016-08-16T04:40:58.636Z,21.79
2016-08-16T04:41:58.622Z,21.79
2016-08-16T04:42:58.601Z,21.73
2016-08-16T04:43:58.583Z,21.77
2016-08-16T04:44:58.559Z,21.75
2016-08-16T04:45:58.551Z,21.83
2016-08-16T04:46:58.532Z,21.75
2016-08-16T04:47:58.518Z,21.77
2016-08-16T04:48:58.506Z,21.77
2016-08-16T04:49:58.487Z,21.77
2016-08-16T04:50:58.467Z,21.75
2016-08-16T04:51:58.457Z,21.77
2016-08-16T04:52:58.439Z,21.77
2016-08-16T04:53:58.420Z,21.73
2016-08-16T04:54:58.405Z,21.71
2016-08-16T04:55:58.383Z,21.77
2016-08-16T04:56:57.664Z,21.73
2016-08-16T04:57:58.355Z,21.73
2016-08-16T04:58:58.342Z,21.79
2016-08-16T04:59:58.323Z,21.75
2016-08-16T05:00:58.308Z,21.75
2016-08-16T05:01:58.292Z,21.75
2016-08-16T05:02:57.567Z,21.79
2016-08-16T05:03:58.261Z,21.77
2016-08-16T05:04:58.244Z,21.77
2016-08-16T05:05:58.225Z,21.77
2016-08-16T05:06:58.218Z,21.77
2016-08-16T05:07:58.192Z,21.68
2016-08-16T05:08:58.171Z,21.77
2016-08-16T05:09:58.167Z,21.77
2016-08-16T05:10:58.143Z,21.77
2016-08-16T05:11:58.137Z,21.79
2016-08-16T05:12:58.110Z,21.77
2016-08-16T05:13:58.090Z,21.71
2016-08-16T05:14:58.080Z,21.67
2016-08-16T05:15:58.064Z,21.7
2016-08-16T05:16:58.047Z,21.63
2016-08-16T05:17:58.029Z,21.66
2016-08-16T05:18:58.017Z,21.7
2016-08-16T05:19:57.996Z,21.58
2016-08-16T05:20:57.281Z,21.61
2016-08-16T05:21:57.968Z,21.61
2016-08-16T05:22:57.967Z,21.71
2016-08-16T05:23:57.924Z,21.63
2016-08-16T05:24:57.216Z,21.67
2016-08-16T05:25:57.184Z,21.63
2016-08-16T05:26:57.890Z,21.71
2016-08-16T05:27:57.870Z,21.68
2016-08-16T05:28:57.851Z,21.7
2016-08-16T05:29:57.836Z,21.67
2016-08-16T05:30:57.108Z,21.68
2016-08-16T05:31:57.801Z,21.7
2016-08-16T05:32:57.789Z,21.66
2016-08-16T05:33:57.778Z,21.68
2016-08-16T05:34:57.037Z,21.68
2016-08-16T05:35:57.031Z,21.71
2016-08-16T05:36:57.719Z,21.59
2016-08-16T05:37:56.998Z,21.67
2016-08-16T05:38:57.690Z,21.66
2016-08-16T05:39:57.669Z,21.7
2016-08-16T05:40:56.944Z,21.68
2016-08-16T05:41:57.638Z,21.7
2016-08-16T05:42:56.917Z,21.7
2016-08-16T05:43:57.630Z,21.68
2016-08-16T05:44:57.590Z,21.74
2016-08-16T05:45:57.579Z,21.71
2016-08-16T05:46:57.561Z,21.73
2016-08-16T05:47:57.541Z,21.7
2016-08-16T05:48:57.521Z,21.7
2016-08-16T05:49:57.521Z,21.66
2016-08-16T05:50:57.504Z,21.73
2016-08-16T05:51:57.477Z,21.67
2016-08-16T05:52:57.458Z,21.73
2016-08-16T05:53:57.449Z,21.73
2016-08-16T05:54:57.431Z,21.74
2016-08-16T05:55:57.419Z,21.71
2016-08-16T05:56:57.392Z,21.7
2016-08-16T05:57:57.385Z,21.7
2016-08-16T05:58:57.367Z,21.7
2016-08-16T05:59:57.402Z,21.7
2016-08-16T06:00:57.324Z,21.7
2016-08-16T06:01:57.324Z,21.73
2016-08-16T06:02:56.580Z,21.75
2016-08-16T06:03:57.283Z,21.68
2016-08-16T06:04:57.262Z,21.77
2016-08-16T06:05:56.553Z,21.77
2016-08-16T06:06:56.532Z,21.79
2016-08-16T06:07:57.225Z,21.73
2016-08-16T06:08:57.210Z,21.73
2016-08-16T06:09:57.191Z,21.67
2016-08-16T06:10:56.452Z,21.66
2016-08-16T06:11:57.151Z,21.73
2016-08-16T06:12:57.363Z,21.79
2016-08-16T06:13:56.423Z,21.73
2016-08-16T06:14:56.395Z,21.68
2016-08-16T06:15:57.092Z,21.73
2016-08-16T06:16:57.063Z,21.66
2016-08-16T06:17:57.058Z,21.71
2016-08-16T06:18:57.032Z,21.73
2016-08-16T06:19:57.015Z,21.66
2016-08-16T06:20:57.006Z,21.66
2016-08-16T06:21:56.995Z,21.66
2016-08-16T06:22:56.969Z,21.66
2016-08-16T06:23:56.248Z,21.71
2016-08-16T06:24:56.941Z,21.67
2016-08-16T06:25:56.932Z,21.63
2016-08-16T06:26:56.908Z,21.68
2016-08-16T06:27:56.892Z,21.74
2016-08-16T06:28:56.161Z,21.71
2016-08-16T06:29:56.857Z,21.71
2016-08-16T06:30:56.851Z,21.73
2016-08-16T06:31:56.844Z,21.67
2016-08-16T06:32:56.807Z,21.67
2016-08-16T06:33:56.795Z,21.75
2016-08-16T06:34:56.784Z,21.73
2016-08-16T06:35:56.759Z,21.7
2016-08-16T06:36:56.738Z,21.63
2016-08-16T06:37:56.732Z,21.74
2016-08-16T06:38:55.998Z,21.73
2016-08-16T06:39:55.278Z,21.75
2016-08-16T06:40:56.671Z,21.73
2016-08-16T06:41:56.667Z,21.74
2016-08-16T06:42:56.642Z,21.75
2016-08-16T06:43:56.633Z,21.67
2016-08-16T06:44:56.614Z,21.74
2016-08-16T06:45:55.900Z,21.74
2016-08-16T06:46:56.583Z,21.82
2016-08-16T06:47:55.849Z,21.73
2016-08-16T06:48:56.552Z,21.75
2016-08-16T06:49:56.522Z,21.79
2016-08-16T06:50:56.507Z,21.77
2016-08-16T06:51:55.795Z,21.74
2016-08-16T06:52:56.494Z,21.75
2016-08-16T06:53:56.476Z,21.75
2016-08-16T06:54:56.459Z,21.77
2016-08-16T06:55:56.434Z,21.82
2016-08-16T06:56:56.425Z,21.86
2016-08-16T06:57:56.410Z,21.77
2016-08-16T06:58:56.398Z,21.85
2016-08-16T06:59:56.379Z,21.86
2016-08-16T07:00:56.355Z,21.82
2016-08-16T07:01:56.345Z,21.71
2016-08-16T07:02:56.319Z,21.85
2016-08-16T07:03:56.305Z,21.59
2016-08-16T07:04:55.575Z,21.67
2016-08-16T07:05:56.263Z,21.59
2016-08-16T07:06:56.251Z,21.56
2016-08-16T07:07:56.253Z,21.51
2016-08-16T07:08:56.225Z,21.52
2016-08-16T07:09:56.200Z,21.55
2016-08-16T07:10:56.191Z,21.61
2016-08-16T07:11:56.178Z,21.66
2016-08-16T07:12:56.159Z,21.64
2016-08-16T07:13:56.150Z,21.71
2016-08-16T07:14:56.126Z,21.74
2016-08-16T07:15:56.109Z,21.74
2016-08-16T07:16:56.100Z,21.75
2016-08-16T07:17:56.079Z,21.73
2016-08-16T07:18:56.061Z,21.7
2016-08-16T07:19:56.046Z,21.79
2016-08-16T07:20:56.031Z,21.79
2016-08-16T07:21:55.300Z,21.79
2016-08-16T07:22:55.996Z,21.66
2016-08-16T07:23:55.984Z,21.63
2016-08-16T07:24:55.956Z,21.66
2016-08-16T07:25:55.943Z,21.75
2016-08-16T07:26:55.934Z,21.73
2016-08-16T07:27:55.911Z,21.77
2016-08-16T07:28:55.923Z,21.55
2016-08-16T07:29:55.886Z,21.49
2016-08-16T07:30:55.153Z,21.59
2016-08-16T07:31:55.850Z,21.59
2016-08-16T07:32:55.833Z,21.63
2016-08-16T07:33:55.817Z,21.58
2016-08-16T07:34:55.805Z,21.52
2016-08-16T07:35:55.796Z,21.63
2016-08-16T07:36:55.778Z,21.64
2016-08-16T07:37:55.754Z,21.61
2016-08-16T07:38:55.734Z,21.58
2016-08-16T07:39:55.720Z,21.58
2016-08-16T07:40:55.695Z,21.55
2016-08-16T07:41:55.690Z,21.51
2016-08-16T07:42:55.664Z,21.46
2016-08-16T07:43:55.655Z,21.11
2016-08-16T07:44:55.643Z,21.12
2016-08-16T07:45:55.630Z,20.96
2016-08-16T07:46:55.598Z,21.05
2016-08-16T07:47:55.592Z,21.18
2016-08-16T07:48:55.569Z,21.22
2016-08-16T07:49:55.557Z,21.37
2016-08-16T07:50:55.543Z,21.43
2016-08-16T07:51:55.521Z,21.51
2016-08-16T07:52:55.516Z,21.56
2016-08-16T07:53:55.492Z,21.53
2016-08-16T07:54:55.476Z,21.67
2016-08-16T07:55:55.457Z,21.71
2016-08-16T07:56:55.446Z,21.68
2016-08-16T07:57:55.428Z,21.74
2016-08-16T07:58:55.405Z,21.7
2016-08-16T07:59:55.403Z,21.79
2016-08-16T08:00:55.383Z,21.85
2016-08-16T08:01:55.379Z,21.82
2016-08-16T08:02:55.355Z,21.9
2016-08-16T08:03:54.619Z,21.94
2016-08-16T08:04:54.599Z,21.86
2016-08-16T08:05:55.297Z,21.98
2016-08-16T08:06:55.271Z,22.01
2016-08-16T08:07:55.267Z,21.93
2016-08-16T08:08:55.238Z,21.91
2016-08-16T08:09:55.229Z,21.94
2016-08-16T08:10:55.204Z,21.98
2016-08-16T08:11:55.198Z,21.91
2016-08-16T08:12:55.186Z,21.94
2016-08-16T08:13:55.160Z,21.94
2016-08-16T08:14:55.148Z,21.93
2016-08-16T08:15:55.119Z,21.93
2016-08-16T08:16:55.110Z,21.94
2016-08-16T08:17:55.093Z,21.89
2016-08-16T08:18:55.093Z,21.9
2016-08-16T08:19:55.070Z,22.01
2016-08-16T08:20:55.058Z,21.91
2016-08-16T08:21:55.028Z,21.93
2016-08-16T08:22:55.032Z,21.85
2016-08-16T08:23:54.289Z,21.94
2016-08-16T08:24:54.282Z,22.01
2016-08-16T08:25:54.967Z,21.9
2016-08-16T08:26:54.242Z,21.94
2016-08-16T08:27:54.930Z,21.98
2016-08-16T08:28:54.910Z,21.93
2016-08-16T08:29:54.901Z,21.89
2016-08-16T08:30:54.886Z,21.85
2016-08-16T08:31:54.863Z,22.04
2016-08-16T08:32:54.850Z,21.96
2016-08-16T08:33:54.826Z,21.94
2016-08-16T08:34:54.817Z,21.99
2016-08-16T08:35:54.797Z,21.94
2016-08-16T08:36:54.789Z,21.96
2016-08-16T08:37:54.060Z,21.94
2016-08-16T08:38:54.759Z,21.99
2016-08-16T08:39:54.730Z,21.94
2016-08-16T08:40:54.719Z,21.98
2016-08-16T08:41:53.991Z,21.98
2016-08-16T08:42:54.683Z,21.91
2016-08-16T08:43:53.960Z,21.98
2016-08-16T08:44:54.654Z,21.96
2016-08-16T08:45:54.634Z,21.94
2016-08-16T08:46:53.923Z,21.98
2016-08-16T08:47:54.606Z,21.96
2016-08-16T08:48:54.587Z,21.94
2016-08-16T08:49:54.580Z,21.96
2016-08-16T08:50:54.556Z,21.94
2016-08-16T08:51:54.543Z,21.91
2016-08-16T08:52:54.529Z,21.94
2016-08-16T08:53:54.500Z,21.99
2016-08-16T08:54:54.490Z,22.01
2016-08-16T08:55:54.472Z,21.94
2016-08-16T08:56:54.460Z,21.99
2016-08-16T08:57:54.434Z,22.01
2016-08-16T08:58:53.716Z,21.96
2016-08-16T08:59:54.405Z,21.94
2016-08-16T09:00:54.395Z,21.98
2016-08-16T09:01:54.373Z,21.93
2016-08-16T09:02:54.377Z,21.91
2016-08-16T09:03:54.345Z,21.91
2016-08-16T09:04:54.332Z,21.79
2016-08-16T09:05:54.305Z,21.73
2016-08-16T09:06:54.299Z,21.75
2016-08-16T09:07:54.286Z,21.82
2016-08-16T09:08:54.262Z,21.81
2016-08-16T09:09:54.247Z,21.89
2016-08-16T09:10:54.236Z,21.94
2016-08-16T09:11:54.214Z,21.94
2016-08-16T09:12:54.195Z,21.99
2016-08-16T09:13:54.194Z,21.98
2016-08-16T09:14:54.163Z,21.89
2016-08-16T09:15:54.157Z,21.93
2016-08-16T09:16:54.131Z,21.83
2016-08-16T09:17:54.120Z,21.82
2016-08-16T09:18:54.105Z,21.81
2016-08-16T09:19:54.100Z,21.99
2016-08-16T09:20:54.065Z,21.94
2016-08-16T09:21:54.055Z,21.99
2016-08-16T09:22:54.041Z,21.98
2016-08-16T09:23:54.018Z,22.02
2016-08-16T09:24:54.005Z,21.93
2016-08-16T09:25:53.984Z,22.01
2016-08-16T09:26:53.984Z,21.93
2016-08-16T09:27:53.953Z,21.86
2016-08-16T09:28:53.940Z,21.85
2016-08-16T09:29:53.931Z,21.83
2016-08-16T09:30:53.911Z,21.83
2016-08-16T09:31:53.895Z,21.81
2016-08-16T09:32:53.879Z,21.77
2016-08-16T09:33:53.879Z,21.81
2016-08-16T09:34:53.128Z,21.82
2016-08-16T09:35:53.829Z,21.83
2016-08-16T09:36:53.809Z,21.77
2016-08-16T09:37:53.793Z,21.64
2016-08-16T09:38:53.778Z,21.71
2016-08-16T09:39:53.051Z,21.68
2016-08-16T09:40:53.741Z,21.73
2016-08-16T09:41:53.742Z,21.79
2016-08-16T09:42:53.716Z,21.77
2016-08-16T09:43:53.703Z,21.79
2016-08-16T09:44:53.686Z,21.75
2016-08-16T09:45:52.955Z,21.82
2016-08-16T09:46:53.645Z,21.86
2016-08-16T09:47:53.631Z,21.86
2016-08-16T09:48:52.897Z,21.89
2016-08-16T09:49:52.892Z,21.83
2016-08-16T09:50:53.581Z,21.85
2016-08-16T09:51:53.573Z,21.9
2016-08-16T09:52:53.554Z,21.83
2016-08-16T09:53:53.532Z,21.74
2016-08-16T09:54:52.804Z,21.74
2016-08-16T09:55:53.499Z,21.77
2016-08-16T09:56:53.482Z,21.73
2016-08-16T09:57:53.463Z,21.86
2016-08-16T09:58:53.445Z,21.86
2016-08-16T09:59:52.722Z,21.85
2016-08-16T10:00:53.415Z,21.81
2016-08-16T10:01:52.695Z,21.93
2016-08-16T10:02:53.395Z,21.93
2016-08-16T10:03:52.667Z,21.89
2016-08-16T10:04:53.350Z,21.85
2016-08-16T10:05:53.333Z,21.89
2016-08-16T10:06:52.614Z,21.77
2016-08-16T10:07:53.301Z,21.79
2016-08-16T10:08:53.293Z,21.81
2016-08-16T10:09:53.272Z,21.77
2016-08-16T10:10:53.245Z,21.73
2016-08-16T10:11:52.648Z,21.82
2016-08-16T10:12:53.224Z,21.82
2016-08-16T10:13:53.207Z,21.81
2016-08-16T10:14:53.191Z,21.9
2016-08-16T10:15:53.170Z,21.98
2016-08-16T10:16:53.157Z,21.89
2016-08-16T10:17:52.439Z,22.01
2016-08-16T10:18:53.123Z,21.91
2016-08-16T10:19:53.109Z,21.96
2016-08-16T10:20:53.092Z,21.9
2016-08-16T10:21:53.069Z,21.93
2016-08-16T10:22:53.058Z,22.02
2016-08-16T10:23:52.335Z,21.93
2016-08-16T10:24:53.027Z,21.99
2016-08-16T10:25:53.006Z,21.93
2016-08-16T10:26:52.990Z,22.01
2016-08-16T10:27:52.971Z,21.98
2016-08-16T10:28:52.249Z,21.9
2016-08-16T10:29:52.229Z,21.91
2016-08-16T10:30:52.979Z,21.96
2016-08-16T10:31:52.907Z,21.91
2016-08-16T10:32:52.887Z,22.02
2016-08-16T10:33:52.879Z,22.04
2016-08-16T10:34:52.862Z,21.99
2016-08-16T10:35:52.843Z,22.06
2016-08-16T10:36:52.829Z,22.14
2016-08-16T10:37:52.810Z,22.09
2016-08-16T10:38:52.796Z,22.04
2016-08-16T10:39:52.783Z,22.04
2016-08-16T10:40:52.756Z,21.99
2016-08-16T10:41:52.041Z,22.02
2016-08-16T10:42:52.730Z,22.08
2016-08-16T10:43:52.710Z,22.05
2016-08-16T10:44:52.700Z,22.11
2016-08-16T10:45:52.682Z,22.05
2016-08-16T10:46:52.668Z,22.11
2016-08-16T10:47:52.649Z,22.02
2016-08-16T10:48:52.662Z,22.06
2016-08-16T10:49:52.615Z,22.09
2016-08-16T10:50:52.597Z,22.02
2016-08-16T10:51:52.579Z,22.09
2016-08-16T10:52:52.567Z,22.06
2016-08-16T10:53:52.545Z,22.11
2016-08-16T10:54:52.538Z,22.06
2016-08-16T10:55:52.519Z,22.09
2016-08-16T10:56:52.495Z,22.11
2016-08-16T10:57:52.508Z,22.01
2016-08-16T10:58:52.474Z,22.04
2016-08-16T10:59:52.455Z,22.01
2016-08-16T11:00:51.726Z,22.06
2016-08-16T11:01:52.419Z,22.06
2016-08-16T11:02:52.401Z,22.08
2016-08-16T11:03:52.401Z,22.09
2016-08-16T11:04:52.375Z,22.01
2016-08-16T11:05:52.355Z,22.06
2016-08-16T11:06:52.348Z,22.12
2016-08-16T11:08:52.309Z,22.11
2016-08-16T11:09:51.583Z,22.04
2016-08-16T11:10:52.267Z,22.11
2016-08-16T11:11:52.253Z,22.04
2016-08-16T11:12:52.254Z,22.05
2016-08-16T11:13:52.223Z,22.12
2016-08-16T11:14:52.211Z,22.14
2016-08-16T11:15:52.187Z,22.15
2016-08-16T11:16:52.174Z,22.06
2016-08-16T11:17:52.161Z,22.11
2016-08-16T11:18:52.135Z,22.09
2016-08-16T11:19:51.414Z,22.12
2016-08-16T11:20:52.111Z,22.04
2016-08-16T11:21:52.098Z,22.06
2016-08-16T11:22:52.090Z,22.23
2016-08-16T11:23:52.062Z,22.14
2016-08-16T11:24:52.044Z,22.23
2016-08-16T11:25:52.030Z,22.15
2016-08-16T11:26:52.008Z,22.15
2016-08-16T11:27:51.990Z,22.17
2016-08-16T11:28:51.982Z,22.2
2016-08-16T11:29:51.960Z,22.12
2016-08-16T11:30:51.946Z,22.12
2016-08-16T11:31:51.929Z,22.09
2016-08-16T11:32:51.921Z,22.12
2016-08-16T11:33:51.901Z,22.01
2016-08-16T11:34:51.882Z,22.04
2016-08-16T11:35:51.861Z,22.11
2016-08-16T11:36:51.850Z,22.01
2016-08-16T11:37:51.146Z,21.96
2016-08-16T11:38:51.819Z,22.02
2016-08-16T11:39:51.803Z,22.06
2016-08-16T11:40:51.790Z,22.11
2016-08-16T11:41:51.790Z,22.11
2016-08-16T11:42:51.750Z,22.12
2016-08-16T11:43:51.023Z,22.08
2016-08-16T11:44:51.720Z,22.11
2016-08-16T11:45:51.702Z,22.14
2016-08-16T11:46:51.705Z,22.15
2016-08-16T11:47:51.662Z,22.14
2016-08-16T11:48:50.947Z,22.12
2016-08-16T11:49:51.642Z,22.09
2016-08-16T11:50:51.615Z,22.06
2016-08-16T11:51:51.609Z,22.06
2016-08-16T11:52:50.882Z,22.11
2016-08-16T11:53:51.577Z,21.98
2016-08-16T11:54:51.560Z,21.9
2016-08-16T11:55:51.539Z,21.99
2016-08-16T11:56:51.529Z,22.11
2016-08-16T11:57:51.505Z,22.05
2016-08-16T11:58:50.779Z,22.09
2016-08-16T11:59:51.473Z,22.11
2016-08-16T12:00:51.472Z,22.09
2016-08-16T12:01:51.438Z,21.91
2016-08-16T12:02:51.436Z,21.99
2016-08-16T12:03:51.410Z,21.89
2016-08-16T12:04:51.403Z,21.94
2016-08-16T12:05:51.383Z,21.98
2016-08-16T12:06:51.364Z,22.04
2016-08-16T12:07:51.336Z,22.12
2016-08-16T12:08:50.618Z,22.15
2016-08-16T12:09:51.315Z,22.12
2016-08-16T12:10:50.596Z,22.11
2016-08-16T12:11:50.566Z,22.05
2016-08-16T12:12:51.266Z,22.01
2016-08-16T12:13:50.533Z,22.06
2016-08-16T12:14:50.522Z,22.02
2016-08-16T12:15:51.215Z,21.99
2016-08-16T12:16:51.199Z,22.06
2016-08-16T12:17:51.178Z,21.99
2016-08-16T12:18:51.161Z,22.02
2016-08-16T12:19:51.155Z,22.05
2016-08-16T12:20:51.136Z,22.14
2016-08-16T12:21:51.107Z,22.08
2016-08-16T12:22:51.092Z,22.05
2016-08-16T12:23:51.083Z,22.01
2016-08-16T12:24:51.060Z,21.96
2016-08-16T12:25:50.338Z,22.05
2016-08-16T12:26:51.041Z,22.09
2016-08-16T12:27:51.026Z,22.06
2016-08-16T12:28:51.002Z,22.11
2016-08-16T12:29:50.986Z,22.11
2016-08-16T12:30:50.972Z,22.17
2016-08-16T12:31:50.960Z,22.19
2016-08-16T12:32:50.938Z,22.14
2016-08-16T12:33:50.922Z,22.06
2016-08-16T12:34:50.911Z,22.11
2016-08-16T12:35:50.890Z,22.14
2016-08-16T12:36:50.870Z,22.11
2016-08-16T12:37:50.147Z,22.15
2016-08-16T12:38:50.124Z,22.08
2016-08-16T12:39:50.837Z,22.08
2016-08-16T12:40:50.817Z,22.15
2016-08-16T12:41:50.788Z,22.14
2016-08-16T12:42:50.764Z,22.19
2016-08-16T12:43:50.761Z,22.15
2016-08-16T12:44:50.751Z,22.15
2016-08-16T12:45:50.740Z,22.35
2016-08-16T12:46:50.709Z,22.39
2016-08-16T12:47:50.694Z,22.35
2016-08-16T12:48:50.674Z,22.45
2016-08-16T12:49:50.662Z,22.45
2016-08-16T12:50:50.639Z,22.45
2016-08-16T12:51:49.915Z,22.49
2016-08-16T12:52:50.614Z,22.51
2016-08-16T12:53:49.890Z,22.52